Time;durP1;ratioP1;P1;durP2;ratioP2;P2;SDS_P1;SDS_P2;PMS_P1;PMS_P2;Temp;Humidity;BMP_temperature;BMP_pressure;BME280_temperature;BME280_humidity;BME280_pressure;Samples;Min_cycle;Max_cycle;Signal;HPM_P1;HPM_P2
2024/01/29 00:00:10;;;;;;;11.05;9.95;;;5.00;99.90;;;;;;5052057;28;20048;-84
2024/01/29 00:02:39;;;;;;;10.38;9.40;;;5.00;99.90;;;;;;5053460;28;20036;-84
2024/01/29 00:05:05;;;;;;;11.20;10.00;;;5.00;99.90;;;;;;5033437;28;20065;-84
2024/01/29 00:07:31;;;;;;;11.20;10.07;;;5.00;99.90;;;;;;5048721;28;20036;-83
2024/01/29 00:09:56;;;;;;;10.65;9.38;;;5.10;99.90;;;;;;5037525;28;20481;-84
2024/01/29 00:12:22;;;;;;;10.48;9.45;;;5.00;99.90;;;;;;5036871;28;20198;-84
2024/01/29 00:14:48;;;;;;;12.27;10.05;;;5.00;99.90;;;;;;5027535;28;20044;-84
2024/01/29 00:17:14;;;;;;;12.45;10.50;;;5.10;99.90;;;;;;5051995;28;20033;-83
2024/01/29 00:19:39;;;;;;;11.10;9.85;;;5.10;99.90;;;;;;5052191;28;20056;-84
2024/01/29 00:22:05;;;;;;;10.73;9.63;;;5.10;99.90;;;;;;5048505;28;20124;-83
2024/01/29 00:24:30;;;;;;;10.63;9.52;;;5.10;99.90;;;;;;5037078;28;20044;-84
2024/01/29 00:26:56;;;;;;;12.80;10.23;;;5.10;99.90;;;;;;5052386;28;20071;-84
2024/01/29 00:29:22;;;;;;;11.27;10.10;;;5.00;99.90;;;;;;5036849;28;20044;-84
2024/01/29 00:31:48;;;;;;;10.43;9.43;;;5.00;99.90;;;;;;5069943;28;20040;-84
2024/01/29 00:34:13;;;;;;;11.73;9.82;;;5.00;99.90;;;;;;5053990;28;20051;-84
2024/01/29 00:36:39;;;;;;;11.55;10.20;;;5.00;99.90;;;;;;5069623;28;20543;-84
2024/01/29 00:39:08;;;;;;;10.63;9.70;;;5.00;99.90;;;;;;5071836;28;20541;-83
2024/01/29 00:41:37;;;;;;;11.65;10.45;;;5.00;99.90;;;;;;5053420;28;20555;-84
2024/01/29 00:44:03;;;;;;;11.45;10.35;;;4.90;99.90;;;;;;5040423;28;20558;-84
2024/01/29 00:46:29;;;;;;;11.27;10.18;;;4.90;99.90;;;;;;5032507;28;20081;-84
2024/01/29 00:48:54;;;;;;;10.90;9.75;;;4.90;99.90;;;;;;5049689;28;20143;-84
2024/01/29 00:51:20;;;;;;;11.40;10.18;;;4.80;99.90;;;;;;5029483;28;20508;-84
2024/01/29 00:53:47;;;;;;;11.25;10.23;;;4.80;99.90;;;;;;5071401;28;20051;-84
2024/01/29 00:56:12;;;;;;;11.85;9.73;;;4.80;99.90;;;;;;5033795;28;20089;-84
2024/01/29 00:58:40;;;;;;;10.57;9.52;;;4.80;99.90;;;;;;5034885;28;20037;-84
2024/01/29 01:01:05;;;;;;;11.32;10.13;;;4.80;99.90;;;;;;5036607;28;20493;-84
2024/01/29 01:03:31;;;;;;;11.07;9.88;;;4.70;99.90;;;;;;5071768;28;20094;-84
2024/01/29 01:05:56;;;;;;;13.98;10.82;;;4.70;99.90;;;;;;5036795;28;20094;-83
2024/01/29 01:08:22;;;;;;;11.25;10.07;;;4.70;99.90;;;;;;5050688;28;20496;-83
2024/01/29 01:10:48;;;;;;;11.40;10.20;;;4.70;99.90;;;;;;5051509;28;20040;-83
2024/01/29 01:13:13;;;;;;;11.98;10.73;;;4.70;99.90;;;;;;5036753;28;20045;-84
2024/01/29 01:15:39;;;;;;;11.43;10.32;;;4.70;99.90;;;;;;5030050;28;20048;-83
2024/01/29 01:18:04;;;;;;;11.35;10.23;;;4.60;99.90;;;;;;5048125;28;20036;-84
2024/01/29 01:20:30;;;;;;;11.23;10.02;;;4.60;99.90;;;;;;5054747;28;20053;-84
2024/01/29 01:22:56;;;;;;;11.93;10.70;;;4.60;99.90;;;;;;5034016;28;20044;-83
2024/01/29 01:25:21;;;;;;;11.80;10.32;;;4.60;99.90;;;;;;5068157;28;20087;-83
2024/01/29 01:27:47;;;;;;;11.80;10.68;;;4.50;99.90;;;;;;5051933;28;20048;-83
2024/01/29 01:30:13;;;;;;;11.20;10.13;;;4.40;99.90;;;;;;5035460;28;20072;-83
2024/01/29 01:32:39;;;;;;;11.85;10.52;;;4.40;99.90;;;;;;5049905;28;20032;-83
2024/01/29 01:35:05;;;;;;;12.52;11.23;;;4.30;99.90;;;;;;5069645;28;20938;-83
2024/01/29 01:37:30;;;;;;;12.93;11.63;;;4.30;99.90;;;;;;5036154;28;20131;-83
2024/01/29 01:39:56;;;;;;;12.70;11.50;;;4.20;99.90;;;;;;5034088;28;20489;-83
2024/01/29 01:42:22;;;;;;;12.40;11.10;;;4.10;99.90;;;;;;5035757;28;20037;-84
2024/01/29 01:44:48;;;;;;;11.98;10.73;;;4.10;99.90;;;;;;5035589;28;20577;-84
2024/01/29 01:47:14;;;;;;;12.40;11.10;;;4.10;99.90;;;;;;5035529;28;20048;-84
2024/01/29 01:49:40;;;;;;;12.75;11.43;;;4.00;99.90;;;;;;5049641;28;20067;-83
2024/01/29 01:52:07;;;;;;;12.73;11.18;;;4.00;99.90;;;;;;5030379;28;20700;-83
2024/01/29 01:54:33;;;;;;;12.27;10.85;;;4.00;99.90;;;;;;5033430;28;20048;-84
2024/01/29 01:56:59;;;;;;;12.52;11.32;;;3.90;99.90;;;;;;5034820;28;20051;-84
2024/01/29 01:59:25;;;;;;;13.13;11.73;;;3.90;99.90;;;;;;5034549;28;20123;-84
2024/01/29 02:01:52;;;;;;;12.80;11.15;;;3.90;99.90;;;;;;5050738;28;20042;-84
2024/01/29 02:04:18;;;;;;;12.50;11.30;;;3.80;99.90;;;;;;5051449;28;20527;-84
2024/01/29 02:06:44;;;;;;;12.80;11.48;;;3.80;99.90;;;;;;5035346;28;20040;-84
2024/01/29 02:09:10;;;;;;;12.85;11.55;;;3.80;99.90;;;;;;5034525;28;20040;-84
2024/01/29 02:11:36;;;;;;;13.38;12.18;;;3.80;99.90;;;;;;5067341;28;20045;-84
2024/01/29 02:14:02;;;;;;;13.82;12.55;;;3.70;99.90;;;;;;5050981;28;20626;-84
2024/01/29 02:16:27;;;;;;;13.25;11.82;;;3.80;99.90;;;;;;5051796;28;20090;-84
2024/01/29 02:18:53;;;;;;;13.07;11.77;;;3.70;99.90;;;;;;5046833;28;20421;-84
2024/01/29 02:21:18;;;;;;;12.82;11.35;;;3.70;99.90;;;;;;5044730;28;20045;-84
2024/01/29 02:23:45;;;;;;;12.85;11.55;;;3.70;99.90;;;;;;5035259;28;20044;-84
2024/01/29 02:26:11;;;;;;;12.25;11.07;;;3.70;99.90;;;;;;5024362;28;20393;-84
2024/01/29 02:28:36;;;;;;;12.75;11.50;;;3.70;99.90;;;;;;5029044;28;20044;-84
2024/01/29 02:31:02;;;;;;;12.95;11.75;;;3.70;99.90;;;;;;5051450;28;20086;-84
2024/01/29 02:33:28;;;;;;;12.73;11.43;;;3.80;99.90;;;;;;5030754;28;20052;-84
2024/01/29 02:35:53;;;;;;;12.60;11.30;;;3.70;99.90;;;;;;5051787;28;20033;-84
2024/01/29 02:38:19;;;;;;;13.13;11.85;;;3.80;99.90;;;;;;5034629;28;20040;-84
2024/01/29 02:40:44;;;;;;;13.82;11.70;;;3.80;99.90;;;;;;5049940;28;20212;-84
2024/01/29 02:43:10;;;;;;;12.25;11.05;;;3.80;99.90;;;;;;5048680;28;20049;-84
2024/01/29 02:45:36;;;;;;;14.15;11.55;;;3.70;99.90;;;;;;5045307;28;20040;-84
2024/01/29 02:48:01;;;;;;;12.80;11.60;;;3.70;99.90;;;;;;5034189;28;20123;-84
2024/01/29 02:50:29;;;;;;;13.38;12.02;;;3.70;99.90;;;;;;5046001;28;20044;-83
2024/01/29 02:52:55;;;;;;;15.60;11.80;;;3.60;99.90;;;;;;5034017;28;20046;-83
2024/01/29 02:55:20;;;;;;;13.02;11.75;;;3.50;99.90;;;;;;5056017;28;20123;-84
2024/01/29 02:57:46;;;;;;;13.43;12.10;;;3.50;99.90;;;;;;5049690;28;20032;-83
2024/01/29 03:00:12;;;;;;;13.77;12.40;;;3.50;99.90;;;;;;5034606;28;20032;-84
2024/01/29 03:02:37;;;;;;;16.70;12.23;;;3.50;99.90;;;;;;5032217;28;20568;-84
2024/01/29 03:05:03;;;;;;;14.02;12.30;;;3.40;99.90;;;;;;5037385;28;20171;-84
2024/01/29 03:07:29;;;;;;;13.20;11.88;;;3.40;99.90;;;;;;5051053;28;20048;-83
2024/01/29 03:09:55;;;;;;;13.70;12.35;;;3.40;99.90;;;;;;5049533;28;20029;-84
2024/01/29 03:12:20;;;;;;;13.35;12.05;;;3.40;99.90;;;;;;5050981;28;20040;-84
2024/01/29 03:14:46;;;;;;;13.40;12.13;;;3.40;99.90;;;;;;5049875;28;20083;-83
2024/01/29 03:17:12;;;;;;;13.13;11.95;;;3.40;99.90;;;;;;5033577;28;20032;-84
2024/01/29 03:19:38;;;;;;;13.75;12.30;;;3.40;99.90;;;;;;5051066;28;20082;-84
2024/01/29 03:22:04;;;;;;;14.13;12.70;;;3.30;99.90;;;;;;5032206;28;20036;-84
2024/01/29 03:24:29;;;;;;;13.82;12.10;;;3.30;99.90;;;;;;5067715;28;20036;-83
2024/01/29 03:26:56;;;;;;;13.13;11.88;;;3.40;99.90;;;;;;5049922;28;20048;-84
2024/01/29 03:29:22;;;;;;;14.10;12.80;;;3.40;99.90;;;;;;5050166;28;20049;-84
2024/01/29 03:31:48;;;;;;;14.05;12.63;;;3.50;99.90;;;;;;5049051;28;20143;-84
2024/01/29 03:34:14;;;;;;;14.00;12.60;;;3.50;99.90;;;;;;5050257;28;20094;-84
2024/01/29 03:36:39;;;;;;;13.95;12.65;;;3.50;99.90;;;;;;5047885;28;20509;-84
2024/01/29 03:39:05;;;;;;;14.82;13.43;;;3.40;99.90;;;;;;5033598;28;20036;-84
2024/01/29 03:41:34;;;;;;;14.15;12.75;;;3.40;99.90;;;;;;5030763;28;20048;-84
2024/01/29 03:43:59;;;;;;;14.60;13.30;;;3.40;99.90;;;;;;5034112;28;20055;-83
2024/01/29 03:46:25;;;;;;;14.52;12.98;;;3.50;99.90;;;;;;5033003;28;20045;-83
2024/01/29 03:48:51;;;;;;;14.70;13.15;;;3.50;99.90;;;;;;5046446;28;20080;-83
2024/01/29 03:51:16;;;;;;;13.88;12.48;;;3.60;99.90;;;;;;5033697;28;20048;-84
2024/01/29 03:53:42;;;;;;;14.52;13.23;;;3.60;99.90;;;;;;5064685;28;20041;-84
2024/01/29 03:56:07;;;;;;;13.90;12.60;;;3.60;99.90;;;;;;5044779;28;20484;-84
2024/01/29 03:58:33;;;;;;;14.90;12.93;;;3.70;99.90;;;;;;5033665;28;20044;-84
2024/01/29 04:00:58;;;;;;;14.98;12.98;;;3.60;99.90;;;;;;5032944;28;20446;-83
2024/01/29 04:03:24;;;;;;;14.10;12.63;;;3.60;99.90;;;;;;5033224;28;20123;-83
2024/01/29 04:05:50;;;;;;;14.48;13.07;;;3.60;99.90;;;;;;5029034;28;20032;-83
2024/01/29 04:08:16;;;;;;;14.88;12.93;;;3.60;99.90;;;;;;5067553;28;20086;-83
2024/01/29 04:10:41;;;;;;;13.30;12.00;;;3.60;99.90;;;;;;5049802;28;20127;-84
2024/01/29 04:13:07;;;;;;;14.38;13.07;;;3.60;99.90;;;;;;5050395;28;20049;-83
2024/01/29 04:15:33;;;;;;;14.50;13.00;;;3.60;99.90;;;;;;5026924;28;20045;-84
2024/01/29 04:17:59;;;;;;;14.82;13.27;;;3.60;99.90;;;;;;5044465;28;20086;-83
2024/01/29 04:20:24;;;;;;;13.57;12.18;;;3.50;99.90;;;;;;5040999;28;20048;-84
2024/01/29 04:22:50;;;;;;;13.80;12.20;;;3.50;99.90;;;;;;5046896;28;20040;-84
2024/01/29 04:25:16;;;;;;;14.20;12.70;;;3.50;99.90;;;;;;5029337;28;20044;-83
2024/01/29 04:27:41;;;;;;;14.35;12.95;;;3.50;99.90;;;;;;5025525;28;20052;-83
2024/01/29 04:30:07;;;;;;;13.50;12.20;;;3.50;99.90;;;;;;5029986;28;20045;-84
2024/01/29 04:32:33;;;;;;;13.20;11.70;;;3.40;99.90;;;;;;5026335;28;20037;-84
2024/01/29 04:34:59;;;;;;;14.77;13.27;;;3.40;99.90;;;;;;5033426;28;20484;-83
2024/01/29 04:37:24;;;;;;;14.13;12.48;;;3.40;99.90;;;;;;5032870;28;20041;-84
2024/01/29 04:39:50;;;;;;;13.07;11.98;;;3.40;99.90;;;;;;5015463;28;20041;-83
2024/01/29 04:42:16;;;;;;;14.88;13.38;;;3.30;99.90;;;;;;5016318;28;20033;-84
2024/01/29 04:44:42;;;;;;;14.20;12.73;;;3.30;99.90;;;;;;5016029;28;20677;-84
2024/01/29 04:47:07;;;;;;;14.55;13.05;;;3.30;99.90;;;;;;5033060;28;20040;-83
2024/01/29 04:49:33;;;;;;;14.68;13.27;;;3.20;99.90;;;;;;5015216;28;20497;-83
2024/01/29 04:51:58;;;;;;;15.30;13.75;;;3.20;99.90;;;;;;5050325;28;20683;-83
2024/01/29 04:54:24;;;;;;;15.73;13.63;;;3.20;99.90;;;;;;5050783;28;20490;-83
2024/01/29 04:56:50;;;;;;;16.52;14.60;;;3.20;99.90;;;;;;5031861;28;20528;-84
2024/01/29 04:59:16;;;;;;;15.75;14.10;;;3.20;99.90;;;;;;5023295;28;20044;-84
2024/01/29 05:01:42;;;;;;;14.73;13.23;;;3.30;99.90;;;;;;5028720;28;20040;-84
2024/01/29 05:04:08;;;;;;;15.52;14.05;;;3.30;99.90;;;;;;5028725;28;20049;-84
2024/01/29 05:06:33;;;;;;;15.75;14.10;;;3.30;99.90;;;;;;5015672;28;20082;-84
2024/01/29 05:09:00;;;;;;;15.38;13.88;;;3.40;99.90;;;;;;5044895;28;20042;-84
2024/01/29 05:11:26;;;;;;;16.27;14.70;;;3.40;99.90;;;;;;5011330;28;20080;-84
2024/01/29 05:13:53;;;;;;;15.05;13.55;;;3.40;99.90;;;;;;5031190;28;20063;-84
2024/01/29 05:16:19;;;;;;;15.52;14.13;;;3.40;99.90;;;;;;5036038;28;20040;-84
2024/01/29 05:18:45;;;;;;;15.30;13.90;;;3.40;99.90;;;;;;5034790;28;20044;-84
2024/01/29 05:21:11;;;;;;;15.30;13.70;;;3.50;99.90;;;;;;5034817;28;20189;-84
2024/01/29 05:23:37;;;;;;;15.75;14.25;;;3.50;99.90;;;;;;5036089;28;20044;-85
2024/01/29 05:26:04;;;;;;;15.07;13.48;;;3.60;99.90;;;;;;5050235;28;20036;-84
2024/01/29 05:28:30;;;;;;;14.70;13.30;;;3.60;99.90;;;;;;5052194;28;20508;-84
2024/01/29 05:30:55;;;;;;;16.23;14.63;;;3.70;99.90;;;;;;5048284;28;20172;-83
2024/01/29 05:33:21;;;;;;;14.90;13.35;;;3.70;99.90;;;;;;5052320;28;20493;-83
2024/01/29 05:35:47;;;;;;;15.55;13.57;;;3.80;99.90;;;;;;5052099;28;20048;-84
2024/01/29 05:38:13;;;;;;;14.93;13.55;;;3.70;99.90;;;;;;5070109;28;20130;-84
2024/01/29 05:40:38;;;;;;;15.52;14.02;;;3.80;99.90;;;;;;5033924;28;20040;-84
2024/01/29 05:43:04;;;;;;;16.00;14.05;;;3.80;99.90;;;;;;5049454;28;20487;-84
2024/01/29 05:45:30;;;;;;;16.50;14.70;;;3.80;99.90;;;;;;5035422;28;20497;-84
2024/01/29 05:47:55;;;;;;;14.18;12.88;;;3.80;99.90;;;;;;5035597;28;20036;-84
2024/01/29 05:50:21;;;;;;;15.23;13.77;;;3.80;99.90;;;;;;5052017;28;20270;-84
2024/01/29 05:52:47;;;;;;;16.73;15.13;;;3.70;99.90;;;;;;5041942;28;20131;-84
2024/01/29 05:55:12;;;;;;;15.95;14.00;;;3.70;99.90;;;;;;5035416;28;20507;-84
2024/01/29 05:57:38;;;;;;;16.50;14.32;;;3.70;99.90;;;;;;5051557;28;20035;-84
2024/01/29 06:00:07;;;;;;;15.48;13.98;;;3.70;99.90;;;;;;5050185;28;20567;-84
2024/01/29 06:02:33;;;;;;;15.52;14.02;;;3.70;99.90;;;;;;5042378;28;20901;-84
2024/01/29 06:04:58;;;;;;;15.35;13.73;;;3.70;99.90;;;;;;5033925;28;20044;-84
2024/01/29 06:07:24;;;;;;;15.30;13.75;;;3.70;99.90;;;;;;5070136;28;20204;-84
2024/01/29 06:09:50;;;;;;;15.70;14.07;;;3.70;99.90;;;;;;5035091;28;20047;-84
2024/01/29 06:12:15;;;;;;;16.48;14.82;;;3.70;99.90;;;;;;5027373;28;20120;-84
2024/01/29 06:14:42;;;;;;;15.35;13.85;;;3.80;99.90;;;;;;5045566;28;20048;-84
2024/01/29 06:17:08;;;;;;;17.45;15.40;;;3.70;99.90;;;;;;5050494;28;20090;-84
2024/01/29 06:19:33;;;;;;;15.90;14.32;;;3.70;99.90;;;;;;5034917;28;20437;-84
2024/01/29 06:21:59;;;;;;;15.60;13.93;;;3.80;99.90;;;;;;5049677;28;20047;-84
2024/01/29 06:24:25;;;;;;;15.50;14.00;;;3.70;99.90;;;;;;5021421;28;20068;-84
2024/01/29 06:26:50;;;;;;;16.50;14.90;;;3.80;99.90;;;;;;5028330;28;20048;-84
2024/01/29 06:29:16;;;;;;;15.32;13.82;;;3.80;99.90;;;;;;5047836;28;20044;-84
2024/01/29 06:31:42;;;;;;;15.43;13.93;;;3.80;99.90;;;;;;5051430;28;20049;-84
2024/01/29 06:34:07;;;;;;;16.92;15.20;;;3.80;99.90;;;;;;5030078;28;20127;-84
2024/01/29 06:36:33;;;;;;;16.85;14.95;;;3.90;99.90;;;;;;5048811;28;20090;-83
2024/01/29 06:38:59;;;;;;;15.07;13.48;;;3.80;99.90;;;;;;5051199;28;20066;-84
2024/01/29 06:41:26;;;;;;;16.00;14.43;;;3.90;99.90;;;;;;5048640;28;20040;-84
2024/01/29 06:43:53;;;;;;;14.60;13.20;;;3.90;99.90;;;;;;5030111;28;20044;-84
2024/01/29 06:46:20;;;;;;;15.52;14.00;;;3.80;99.90;;;;;;5045410;28;20051;-84
2024/01/29 06:48:46;;;;;;;15.93;14.30;;;3.80;99.90;;;;;;5040717;28;20044;-83
2024/01/29 06:51:14;;;;;;;15.88;14.23;;;3.80;99.90;;;;;;5046491;28;20058;-84
2024/01/29 06:53:40;;;;;;;15.93;14.30;;;3.70;99.90;;;;;;5033424;28;20049;-84
2024/01/29 06:56:06;;;;;;;16.00;14.25;;;3.70;99.90;;;;;;5043659;28;20116;-84
2024/01/29 06:58:32;;;;;;;16.45;14.13;;;3.70;99.90;;;;;;5043675;28;20037;-84
2024/01/29 07:01:01;;;;;;;16.65;14.95;;;3.60;99.90;;;;;;5033708;28;20073;-84
2024/01/29 07:03:27;;;;;;;15.70;14.07;;;3.60;99.90;;;;;;5068917;28;20543;-84
2024/01/29 07:05:53;;;;;;;15.77;14.18;;;3.60;99.90;;;;;;5032832;28;20040;-84
2024/01/29 07:08:19;;;;;;;16.35;14.75;;;3.60;99.90;;;;;;5046960;28;20127;-84
2024/01/29 07:10:45;;;;;;;15.82;14.23;;;3.50;99.90;;;;;;5029800;28;20128;-84
2024/01/29 07:13:12;;;;;;;17.35;15.55;;;3.50;99.90;;;;;;5044358;28;20036;-84
2024/01/29 07:15:38;;;;;;;16.13;14.52;;;3.50;99.90;;;;;;5063137;28;20028;-84
2024/01/29 07:18:04;;;;;;;16.73;15.02;;;3.50;99.90;;;;;;5029498;28;20392;-84
2024/01/29 07:20:37;;;;;;;16.55;14.95;;;3.50;99.90;;;;;;5046119;28;20049;-83
2024/01/29 07:23:07;;;;;;;17.77;15.85;;;3.50;99.90;;;;;;5039845;28;20503;-84
2024/01/29 07:25:40;;;;;;;17.83;15.60;;;3.40;99.90;;;;;;5046551;28;20044;-84
2024/01/29 07:28:06;;;;;;;17.50;15.88;;;3.40;99.90;;;;;;5046989;28;20049;-84
2024/01/29 07:30:32;;;;;;;18.27;16.48;;;3.40;99.90;;;;;;5029533;28;20048;-84
2024/01/29 07:33:02;;;;;;;17.88;16.00;;;3.50;99.90;;;;;;5043992;28;20045;-84
2024/01/29 07:35:28;;;;;;;17.65;15.95;;;3.50;99.90;;;;;;5022808;28;20401;-84
2024/01/29 07:37:54;;;;;;;17.75;16.05;;;3.50;99.90;;;;;;5044740;28;20041;-84
2024/01/29 07:40:21;;;;;;;18.05;16.33;;;3.50;99.90;;;;;;5046505;28;20437;-84
2024/01/29 07:42:47;;;;;;;17.67;16.05;;;3.50;99.90;;;;;;5047900;28;20472;-84
2024/01/29 07:45:13;;;;;;;18.15;16.20;;;3.60;99.90;;;;;;5030228;28;20037;-84
2024/01/29 07:47:39;;;;;;;18.77;16.98;;;3.60;99.90;;;;;;5043662;28;20042;-84
2024/01/29 07:50:05;;;;;;;18.23;16.42;;;3.70;99.90;;;;;;5031834;28;20684;-83
2024/01/29 07:52:31;;;;;;;19.20;17.20;;;3.70;99.90;;;;;;5028863;28;20119;-83
2024/01/29 07:54:57;;;;;;;20.05;18.02;;;3.70;99.90;;;;;;5065042;28;20418;-84
2024/01/29 07:57:24;;;;;;;19.17;17.30;;;3.80;99.90;;;;;;5047141;28;20047;-84
2024/01/29 07:59:49;;;;;;;19.02;17.13;;;3.80;99.90;;;;;;5024649;28;20043;-84
2024/01/29 08:02:15;;;;;;;18.52;16.73;;;3.80;99.90;;;;;;5041938;28;20033;-84
2024/01/29 08:04:41;;;;;;;21.33;17.42;;;3.80;99.90;;;;;;5039364;28;20048;-84
2024/01/29 08:07:06;;;;;;;19.60;17.60;;;3.90;99.90;;;;;;5045826;28;20075;-83
2024/01/29 08:09:32;;;;;;;18.80;16.90;;;3.90;99.90;;;;;;5052455;28;20093;-83
2024/01/29 08:11:58;;;;;;;19.75;17.13;;;3.90;99.90;;;;;;5052178;28;20041;-84
2024/01/29 08:14:23;;;;;;;19.20;17.20;;;4.00;99.90;;;;;;5051181;28;20076;-83
2024/01/29 08:16:49;;;;;;;19.20;17.27;;;4.10;99.90;;;;;;5036691;28;20060;-84
2024/01/29 08:19:14;;;;;;;19.45;17.55;;;4.10;99.90;;;;;;5037094;28;20139;-84
2024/01/29 08:21:40;;;;;;;21.10;19.00;;;4.20;99.90;;;;;;5038124;28;20121;-83
2024/01/29 08:24:06;;;;;;;18.33;16.67;;;4.30;99.90;;;;;;5040646;28;20055;-84
2024/01/29 08:26:32;;;;;;;19.08;17.35;;;4.50;99.90;;;;;;5051755;28;20250;-84
2024/01/29 08:28:59;;;;;;;19.13;17.33;;;4.50;99.90;;;;;;5053228;28;20113;-84
2024/01/29 08:31:25;;;;;;;18.60;16.80;;;4.60;99.90;;;;;;5035075;28;20504;-83
2024/01/29 08:33:50;;;;;;;19.15;17.35;;;4.70;99.90;;;;;;5051902;28;20453;-84
2024/01/29 08:36:16;;;;;;;19.00;17.08;;;4.80;99.90;;;;;;5028018;28;20056;-84
2024/01/29 08:38:42;;;;;;;20.00;18.02;;;4.80;99.90;;;;;;5067712;28;20075;-84
2024/01/29 08:41:08;;;;;;;19.02;16.52;;;4.90;99.90;;;;;;5025222;28;20071;-84
2024/01/29 08:43:34;;;;;;;18.92;17.00;;;5.00;99.90;;;;;;5047582;28;20082;-84
2024/01/29 08:46:00;;;;;;;18.13;16.13;;;5.10;99.90;;;;;;5049178;28;20041;-84
2024/01/29 08:48:26;;;;;;;18.23;16.35;;;5.10;99.90;;;;;;5051744;28;20496;-84
2024/01/29 08:50:51;;;;;;;18.35;16.55;;;5.10;99.90;;;;;;5047427;28;20036;-84
2024/01/29 08:53:17;;;;;;;17.38;15.68;;;5.20;99.90;;;;;;5036325;28;20049;-83
2024/01/29 08:55:43;;;;;;;18.05;16.27;;;5.20;99.90;;;;;;5033617;28;20089;-84
2024/01/29 08:58:09;;;;;;;18.92;16.42;;;5.20;99.90;;;;;;5051488;28;20489;-83
2024/01/29 09:00:34;;;;;;;19.20;17.15;;;5.20;99.90;;;;;;5035011;28;20032;-84
2024/01/29 09:03:00;;;;;;;17.60;15.73;;;5.20;99.90;;;;;;5051543;28;20544;-83
2024/01/29 09:05:25;;;;;;;18.00;16.17;;;5.30;99.90;;;;;;5051901;28;20040;-84
2024/01/29 09:07:51;;;;;;;17.67;15.77;;;5.30;99.90;;;;;;5044720;28;20044;-84
2024/01/29 09:10:17;;;;;;;19.58;17.52;;;5.30;99.90;;;;;;5045459;28;20055;-84
2024/01/29 09:12:43;;;;;;;19.05;16.15;;;5.30;99.90;;;;;;5051987;28;20617;-84
2024/01/29 09:15:09;;;;;;;18.77;16.77;;;5.40;99.90;;;;;;5053061;28;20047;-84
2024/01/29 09:17:36;;;;;;;18.52;16.58;;;5.40;99.90;;;;;;5043196;28;20041;-84
2024/01/29 09:20:04;;;;;;;19.15;16.85;;;5.50;99.90;;;;;;5034270;28;20059;-83
2024/01/29 09:22:30;;;;;;;18.40;16.50;;;5.50;99.90;;;;;;5064339;28;20441;-83
2024/01/29 09:24:55;;;;;;;19.73;16.60;;;5.60;99.90;;;;;;5045077;28;20049;-84
2024/01/29 09:27:21;;;;;;;18.50;16.50;;;5.60;99.90;;;;;;5029526;28;20044;-83
2024/01/29 09:29:46;;;;;;;19.02;15.65;;;5.70;99.90;;;;;;5049712;28;20052;-84
2024/01/29 09:32:12;;;;;;;18.60;16.73;;;5.80;99.90;;;;;;5043382;28;20040;-84
2024/01/29 09:34:38;;;;;;;17.45;15.73;;;5.80;99.90;;;;;;5034579;28;20105;-83
2024/01/29 09:37:03;;;;;;;18.58;16.65;;;5.80;99.90;;;;;;5035484;28;20050;-84
2024/01/29 09:39:29;;;;;;;18.88;16.20;;;5.90;99.90;;;;;;5048015;28;20480;-84
2024/01/29 09:42:05;;;;;;;20.63;16.25;;;5.90;99.90;;;;;;5028023;28;20049;-84
2024/01/29 09:44:37;;;;;;;17.55;15.65;;;6.00;99.90;;;;;;5047196;28;20474;-84
2024/01/29 09:47:05;;;;;;;17.13;15.10;;;6.00;99.90;;;;;;5046933;28;20044;-84
2024/01/29 09:49:34;;;;;;;22.05;16.48;;;6.10;99.90;;;;;;5031951;28;20412;-84
2024/01/29 09:52:04;;;;;;;17.70;15.77;;;6.10;99.90;;;;;;5032988;28;20044;-84
2024/01/29 09:54:30;;;;;;;18.50;15.95;;;6.10;99.90;;;;;;5033069;28;20123;-84
2024/01/29 09:56:55;;;;;;;18.38;16.48;;;6.20;99.90;;;;;;5050870;28;20033;-84
2024/01/29 09:59:22;;;;;;;18.75;16.75;;;6.20;99.90;;;;;;5030400;28;20037;-84
2024/01/29 10:01:49;;;;;;;21.45;17.40;;;6.30;99.90;;;;;;5026438;28;20393;-83
2024/01/29 10:04:15;;;;;;;17.67;15.75;;;6.40;99.90;;;;;;5023942;28;20048;-84
2024/01/29 10:06:40;;;;;;;18.05;16.15;;;6.40;99.90;;;;;;5029694;28;20481;-84
2024/01/29 10:09:06;;;;;;;19.35;15.93;;;6.50;99.90;;;;;;5048571;28;20044;-84
2024/01/29 10:11:32;;;;;;;19.75;16.55;;;6.60;99.90;;;;;;5034935;28;20039;-84
2024/01/29 10:13:59;;;;;;;20.33;16.63;;;6.60;99.90;;;;;;5051914;28;20036;-83
2024/01/29 10:16:26;;;;;;;18.25;16.27;;;6.70;99.90;;;;;;5051473;28;20531;-83
2024/01/29 10:18:56;;;;;;;17.60;15.85;;;6.80;99.90;;;;;;5035041;28;20447;-84
2024/01/29 10:21:22;;;;;;;19.10;16.10;;;6.90;99.90;;;;;;5050554;28;20045;-83
2024/01/29 10:23:57;;;;;;;18.30;15.98;;;7.00;99.90;;;;;;5031735;28;20473;-84
2024/01/29 10:26:24;;;;;;;20.48;15.95;;;7.10;99.90;;;;;;5033936;28;20048;-84
2024/01/29 10:29:19;;;;;;;20.30;15.43;;;7.10;99.90;;;;;;5050963;28;20040;-83
2024/01/29 10:31:44;;;;;;;20.48;16.52;;;7.30;99.90;;;;;;4942495;28;20066;-84
2024/01/29 10:34:10;;;;;;;19.52;16.55;;;7.40;99.90;;;;;;4959367;28;20038;-85
2024/01/29 10:36:39;;;;;;;19.65;16.23;;;7.50;99.90;;;;;;4968983;28;20543;-84
2024/01/29 10:39:07;;;;;;;20.85;17.35;;;7.50;99.90;;;;;;4936044;28;20179;-84
2024/01/29 10:41:34;;;;;;;19.52;16.30;;;7.50;99.90;;;;;;4947604;28;20058;-84
2024/01/29 10:44:03;;;;;;;19.15;16.65;;;7.60;99.90;;;;;;4949806;28;20046;-84
2024/01/29 10:46:34;;;;;;;20.63;16.88;;;7.60;99.90;;;;;;4966974;28;20074;-84
2024/01/29 10:49:01;;;;;;;17.60;15.70;;;7.60;99.90;;;;;;4950796;28;20116;-84
2024/01/29 10:51:30;;;;;;;19.92;17.80;;;7.70;99.90;;;;;;4923373;28;20100;-84
2024/01/29 10:53:59;;;;;;;19.85;16.75;;;7.70;99.90;;;;;;4949308;28;20044;-84
2024/01/29 10:56:25;;;;;;;20.98;16.38;;;7.80;99.90;;;;;;4943148;28;20525;-85
2024/01/29 10:58:57;;;;;;;19.70;16.65;;;7.80;99.90;;;;;;4961530;28;20062;-84
2024/01/29 11:01:24;;;;;;;17.58;15.30;;;7.80;99.90;;;;;;4965109;28;20042;-84
2024/01/29 11:03:51;;;;;;;20.50;17.70;;;7.90;99.90;;;;;;4982735;28;20435;-84
2024/01/29 11:06:26;;;;;;;19.58;17.05;;;7.90;99.90;;;;;;4938082;28;20522;-84
2024/01/29 11:09:00;;;;;;;20.92;16.90;;;7.90;99.90;;;;;;5050681;28;20520;-85
2024/01/29 11:11:27;;;;;;;21.30;17.08;;;8.00;99.90;;;;;;5051046;28;20060;-84
2024/01/29 11:13:53;;;;;;;20.65;16.75;;;8.00;99.90;;;;;;5033621;28;20124;-85
2024/01/29 11:16:22;;;;;;;19.75;15.48;;;8.00;99.90;;;;;;5032395;28;20036;-85
2024/01/29 11:18:48;;;;;;;18.52;15.95;;;8.10;99.90;;;;;;5047269;28;20864;-84
2024/01/29 11:21:14;;;;;;;19.75;16.40;;;8.10;99.90;;;;;;5034635;28;20040;-84
2024/01/29 11:23:47;;;;;;;21.45;17.20;;;8.20;99.90;;;;;;5048976;28;20038;-84
2024/01/29 11:26:17;;;;;;;20.92;17.30;;;8.20;99.90;;;;;;5050252;28;20075;-84
2024/01/29 11:28:43;;;;;;;21.35;17.98;;;8.20;99.90;;;;;;5067848;28;20569;-85
2024/01/29 11:31:13;;;;;;;19.75;17.55;;;8.30;99.90;;;;;;5050094;28;20048;-84
2024/01/29 11:33:39;;;;;;;18.73;16.67;;;8.30;99.90;;;;;;5047147;28;20087;-85
2024/01/29 11:36:12;;;;;;;20.88;17.88;;;8.40;99.90;;;;;;5033720;28;20039;-84
2024/01/29 11:38:38;;;;;;;24.45;18.13;;;8.50;99.90;;;;;;5045382;28;20348;-85
2024/01/29 11:41:05;;;;;;;22.10;17.55;;;8.50;99.90;;;;;;5041300;28;20424;-85
2024/01/29 11:43:32;;;;;;;23.40;18.92;;;8.60;99.90;;;;;;5043388;28;20419;-84
2024/01/29 11:45:58;;;;;;;23.52;18.80;;;8.60;99.90;;;;;;5030354;28;20049;-84
2024/01/29 11:48:24;;;;;;;25.48;18.52;;;8.70;99.90;;;;;;5028907;28;20516;-85
2024/01/29 11:50:56;;;;;;;24.13;18.48;;;8.80;99.90;;;;;;5031197;28;20102;-85
2024/01/29 11:53:25;;;;;;;25.48;18.90;;;8.90;99.90;;;;;;5028104;28;20520;-84
2024/01/29 11:55:51;;;;;;;30.45;19.60;;;9.00;99.90;;;;;;5046830;28;20124;-85
2024/01/29 11:58:22;;;;;;;27.30;18.98;;;9.00;99.90;;;;;;5038030;28;20162;-85
2024/01/29 12:00:51;;;;;;;24.80;18.40;;;8.90;99.90;;;;;;5049523;28;20071;-85
2024/01/29 12:03:22;;;;;;;27.23;19.73;;;8.90;99.90;;;;;;5043955;28;20674;-85
2024/01/29 12:05:51;;;;;;;29.05;20.13;;;8.90;99.90;;;;;;5062028;28;20047;-84
2024/01/29 12:08:18;;;;;;;26.48;18.13;;;8.80;99.90;;;;;;5029290;28;20059;-85
2024/01/29 12:10:45;;;;;;;28.48;18.80;;;8.80;99.90;;;;;;5047390;28;20047;-85
2024/01/29 12:13:21;;;;;;;28.42;20.17;;;8.80;99.90;;;;;;5029105;28;20067;-85
2024/01/29 12:15:49;;;;;;;26.95;18.05;;;8.80;99.90;;;;;;5043764;28;20036;-85
2024/01/29 12:18:25;;;;;;;27.50;19.80;;;8.80;99.90;;;;;;5029538;28;20056;-85
2024/01/29 12:20:53;;;;;;;30.90;19.95;;;8.80;99.90;;;;;;5028706;28;20049;-85
2024/01/29 12:23:23;;;;;;;31.15;20.15;;;8.80;99.90;;;;;;5023670;28;20047;-84
2024/01/29 12:25:53;;;;;;;30.63;20.23;;;8.70;99.90;;;;;;5045006;28;20071;-84
2024/01/29 12:28:19;;;;;;;30.90;20.02;;;8.70;99.90;;;;;;5047134;28;20064;-84
2024/01/29 12:30:57;;;;;;;33.00;19.80;;;8.70;99.90;;;;;;5045152;28;20044;-85
2024/01/29 12:33:29;;;;;;;33.88;20.48;;;8.70;99.90;;;;;;5047114;28;20074;-84